Time;durP1;ratioP1;P1;durP2;ratioP2;P2;SDS_P1;SDS_P2;PMS_P1;PMS_P2;Temp;Humidity;BMP_temperature;BMP_pressure;BME280_temperature;BME280_humidity;BME280_pressure;Samples;Min_cycle;Max_cycle;Signal;HPM_P1;HPM_P2
2023/10/18 00:01:12;;;;;;;9.15;6.78;;;;;;;;;;5032542;28;20211;-65
2023/10/18 00:03:41;;;;;;;11.63;6.50;;;;;;;;;;5034551;28;20205;-65
2023/10/18 00:06:15;;;;;;;8.60;5.43;;;;;;;;;;5035478;28;20206;-65
2023/10/18 00:08:45;;;;;;;7.82;6.30;;;;;;;;;;5018571;28;20569;-66
2023/10/18 00:11:13;;;;;;;7.13;6.40;;;;;;;;;;5026697;28;20210;-65
2023/10/18 00:13:44;;;;;;;11.43;5.85;;;;;;;;;;5022212;28;20221;-66
2023/10/18 00:16:12;;;;;;;11.02;6.60;;;;;;;;;;5034694;28;20185;-66
2023/10/18 00:18:41;;;;;;;7.80;6.03;;;;;;;;;;5034598;28;20208;-66
2023/10/18 00:21:09;;;;;;;6.22;5.43;;;;;;;;;;5016451;28;20221;-65
2023/10/18 00:23:37;;;;;;;8.75;6.63;;;;;;;;;;5034995;28;20288;-66
2023/10/18 00:26:05;;;;;;;8.60;5.00;;;;;;;;;;5035446;28;20619;-66
2023/10/18 00:28:34;;;;;;;7.68;5.80;;;;;;;;;;5034565;28;20198;-66
2023/10/18 00:31:11;;;;;;;6.22;5.72;;;;;;;;;;5017325;28;20212;-66
2023/10/18 00:33:40;;;;;;;6.50;5.82;;;;;;;;;;5000879;28;20575;-66
2023/10/18 00:36:11;;;;;;;8.43;5.30;;;;;;;;;;5035543;28;20251;-66
2023/10/18 00:38:39;;;;;;;6.13;5.53;;;;;;;;;;5017554;28;20246;-65
2023/10/18 00:41:15;;;;;;;7.28;5.70;;;;;;;;;;5021160;28;20213;-66
2023/10/18 00:43:45;;;;;;;7.10;6.40;;;;;;;;;;5016864;28;20240;-66
2023/10/18 00:46:15;;;;;;;6.10;5.38;;;;;;;;;;5014428;28;20206;-66
2023/10/18 00:48:44;;;;;;;9.65;6.30;;;;;;;;;;5034719;28;20205;-65
2023/10/18 00:51:18;;;;;;;8.65;6.55;;;;;;;;;;5034725;28;20208;-66
2023/10/18 00:53:46;;;;;;;6.88;6.15;;;;;;;;;;5034540;28;20653;-66
2023/10/18 00:56:16;;;;;;;8.05;6.95;;;;;;;;;;5035002;28;20598;-67
2023/10/18 00:58:45;;;;;;;6.40;5.82;;;;;;;;;;5016833;28;20213;-66
2023/10/18 01:01:17;;;;;;;11.43;5.70;;;;;;;;;;5016838;28;20217;-65
2023/10/18 01:03:46;;;;;;;7.07;6.18;;;;;;;;;;5033966;28;20192;-66
2023/10/18 01:06:17;;;;;;;7.28;5.60;;;;;;;;;;5033803;28;20205;-65
2023/10/18 01:08:49;;;;;;;7.20;6.50;;;;;;;;;;4998009;28;20193;-65
2023/10/18 01:11:23;;;;;;;6.20;5.60;;;;;;;;;;5014324;28;20197;-64
2023/10/18 01:13:53;;;;;;;6.90;6.30;;;;;;;;;;5015058;28;20213;-65
2023/10/18 01:16:23;;;;;;;7.35;6.07;;;;;;;;;;4997830;28;20204;-65
2023/10/18 01:18:54;;;;;;;8.02;6.55;;;;;;;;;;4980495;28;20289;-65
2023/10/18 01:21:23;;;;;;;7.28;6.32;;;;;;;;;;5034268;28;20195;-65
2023/10/18 01:23:52;;;;;;;10.23;5.90;;;;;;;;;;5029175;28;20208;-65
2023/10/18 01:26:23;;;;;;;7.75;6.32;;;;;;;;;;4997241;28;20224;-65
2023/10/18 01:28:52;;;;;;;7.82;7.03;;;;;;;;;;5009948;28;20208;-65
2023/10/18 01:31:21;;;;;;;7.03;6.20;;;;;;;;;;5033714;28;20250;-65
2023/10/18 01:33:50;;;;;;;7.65;6.72;;;;;;;;;;5017003;28;20217;-65
2023/10/18 01:36:20;;;;;;;6.85;5.95;;;;;;;;;;5025238;28;20217;-65
2023/10/18 01:38:51;;;;;;;10.40;6.72;;;;;;;;;;5016130;28;20190;-65
2023/10/18 01:41:27;;;;;;;7.20;6.30;;;;;;;;;;5016622;28;20255;-65
2023/10/18 01:43:59;;;;;;;7.78;5.97;;;;;;;;;;5033525;28;20294;-65
2023/10/18 01:46:27;;;;;;;12.55;6.35;;;;;;;;;;5033890;28;20583;-65
2023/10/18 01:48:55;;;;;;;7.65;6.32;;;;;;;;;;5034146;28;20211;-65
2023/10/18 01:51:23;;;;;;;7.60;6.80;;;;;;;;;;5016343;28;20578;-65
2023/10/18 01:53:54;;;;;;;10.90;7.47;;;;;;;;;;5034168;28;20233;-65
2023/10/18 01:56:23;;;;;;;8.77;7.47;;;;;;;;;;5032534;28;20205;-65
2023/10/18 01:58:53;;;;;;;8.95;7.18;;;;;;;;;;4999984;28;20208;-65
2023/10/18 02:01:23;;;;;;;10.55;6.93;;;;;;;;;;5015500;28;20573;-65
2023/10/18 02:03:53;;;;;;;10.43;7.20;;;;;;;;;;5032795;28;20569;-65
2023/10/18 02:06:21;;;;;;;9.27;7.50;;;;;;;;;;5014908;28;20201;-65
2023/10/18 02:08:50;;;;;;;9.38;7.40;;;;;;;;;;5015874;28;20209;-65
2023/10/18 02:11:19;;;;;;;10.05;6.88;;;;;;;;;;5033425;28;20215;-65
2023/10/18 02:13:47;;;;;;;13.05;6.75;;;;;;;;;;4998649;28;20225;-65
2023/10/18 02:16:19;;;;;;;8.50;6.50;;;;;;;;;;5033995;28;20620;-65
2023/10/18 02:18:49;;;;;;;10.02;6.70;;;;;;;;;;5033795;28;20584;-65
2023/10/18 02:21:21;;;;;;;12.45;8.10;;;;;;;;;;5018537;28;20251;-64
2023/10/18 02:23:51;;;;;;;13.10;7.80;;;;;;;;;;4997510;28;20258;-65
2023/10/18 02:26:31;;;;;;;7.70;6.60;;;;;;;;;;5033041;28;20717;-65
2023/10/18 02:29:00;;;;;;;15.80;8.80;;;;;;;;;;5015480;28;20189;-64
2023/10/18 02:31:30;;;;;;;8.75;7.85;;;;;;;;;;5031880;28;20201;-65
2023/10/18 02:34:03;;;;;;;7.50;6.40;;;;;;;;;;5034025;28;20231;-65
2023/10/18 02:36:38;;;;;;;9.07;7.60;;;;;;;;;;5016392;28;20189;-65
2023/10/18 02:39:07;;;;;;;8.63;7.68;;;;;;;;;;5014396;28;20574;-65
2023/10/18 02:41:38;;;;;;;13.10;8.25;;;;;;;;;;5015833;28;20297;-65
2023/10/18 02:44:21;;;;;;;9.48;7.57;;;;;;;;;;5032692;28;20237;-66
2023/10/18 02:46:51;;;;;;;10.43;7.55;;;;;;;;;;5033275;28;20751;-66
2023/10/18 02:49:23;;;;;;;10.85;8.10;;;;;;;;;;5014998;28;20212;-65
2023/10/18 02:51:52;;;;;;;10.13;7.63;;;;;;;;;;5032936;28;20192;-65
2023/10/18 02:54:22;;;;;;;12.05;8.95;;;;;;;;;;5033145;28;20580;-65
2023/10/18 02:56:53;;;;;;;9.77;7.75;;;;;;;;;;5016200;28;20204;-66
2023/10/18 02:59:23;;;;;;;8.85;7.95;;;;;;;;;;5014994;28;20249;-65
2023/10/18 03:01:54;;;;;;;11.30;8.85;;;;;;;;;;5033368;28;20755;-65
2023/10/18 03:04:26;;;;;;;10.82;7.70;;;;;;;;;;5031533;28;20194;-65
2023/10/18 03:06:55;;;;;;;9.55;8.40;;;;;;;;;;5015226;28;20193;-66
2023/10/18 03:09:38;;;;;;;11.57;7.95;;;;;;;;;;5014148;28;20213;-66
2023/10/18 03:12:13;;;;;;;14.90;9.57;;;;;;;;;;5015668;28;20193;-65
2023/10/18 03:14:53;;;;;;;12.40;8.30;;;;;;;;;;5002657;28;20205;-64
2023/10/18 03:17:23;;;;;;;12.25;8.82;;;;;;;;;;5032897;28;20309;-65
2023/10/18 03:19:54;;;;;;;13.30;8.48;;;;;;;;;;5029778;28;20208;-65
2023/10/18 03:22:22;;;;;;;10.27;8.25;;;;;;;;;;4987010;28;20208;-65
2023/10/18 03:24:54;;;;;;;12.43;8.25;;;;;;;;;;5026159;28;20193;-65
2023/10/18 03:27:22;;;;;;;11.50;8.25;;;;;;;;;;5015547;28;20200;-65
2023/10/18 03:29:56;;;;;;;9.45;7.80;;;;;;;;;;5034501;28;20197;-65
2023/10/18 03:32:25;;;;;;;13.30;9.02;;;;;;;;;;5015559;28;20705;-66
2023/10/18 03:34:54;;;;;;;16.70;8.25;;;;;;;;;;5034679;28;20225;-65
2023/10/18 03:37:24;;;;;;;10.80;7.90;;;;;;;;;;5029388;28;20708;-65
2023/10/18 03:39:53;;;;;;;10.70;8.90;;;;;;;;;;5016024;28;20587;-65
2023/10/18 03:42:30;;;;;;;8.25;7.25;;;;;;;;;;5019518;28;20229;-65
2023/10/18 03:44:59;;;;;;;15.23;7.78;;;;;;;;;;5029588;28;20213;-65
2023/10/18 03:47:28;;;;;;;12.93;9.02;;;;;;;;;;5032441;28;20656;-65
2023/10/18 03:49:58;;;;;;;14.43;8.98;;;;;;;;;;5020171;28;20686;-65
2023/10/18 03:52:27;;;;;;;10.80;8.07;;;;;;;;;;5035568;28;20629;-65
2023/10/18 03:55:13;;;;;;;12.10;8.98;;;;;;;;;;5011478;28;20214;-66
2023/10/18 03:57:41;;;;;;;10.23;8.90;;;;;;;;;;5034987;28;20573;-64
2023/10/18 04:00:37;;;;;;;10.32;9.23;;;;;;;;;;5034118;28;20200;-65
2023/10/18 04:03:09;;;;;;;14.10;9.30;;;;;;;;;;5034955;28;20193;-66
2023/10/18 04:05:44;;;;;;;13.20;7.88;;;;;;;;;;5034649;28;20243;-66
2023/10/18 04:08:14;;;;;;;11.75;9.20;;;;;;;;;;5034762;28;20581;-66
2023/10/18 04:10:42;;;;;;;12.32;9.27;;;;;;;;;;5035149;28;20200;-66
2023/10/18 04:13:12;;;;;;;12.23;9.13;;;;;;;;;;5034971;28;20209;-66
2023/10/18 04:15:41;;;;;;;12.50;10.43;;;;;;;;;;5027283;28;20258;-64
2023/10/18 04:18:13;;;;;;;12.43;8.85;;;;;;;;;;5035500;28;20719;-64
2023/10/18 04:20:47;;;;;;;10.02;8.75;;;;;;;;;;5035096;28;20278;-65
2023/10/18 04:23:18;;;;;;;13.80;9.05;;;;;;;;;;5035175;28;20185;-64
2023/10/18 04:25:57;;;;;;;11.25;9.02;;;;;;;;;;5035348;28;20537;-66
2023/10/18 04:28:25;;;;;;;13.85;9.52;;;;;;;;;;5035487;28;20204;-65
2023/10/18 04:30:59;;;;;;;14.48;9.88;;;;;;;;;;5035013;28;20205;-64
2023/10/18 04:33:34;;;;;;;12.63;9.80;;;;;;;;;;5036390;28;20189;-66
2023/10/18 04:36:09;;;;;;;12.68;8.75;;;;;;;;;;5035581;28;20216;-64
2023/10/18 04:38:42;;;;;;;9.30;7.88;;;;;;;;;;5034392;28;20189;-64
2023/10/18 04:41:22;;;;;;;11.98;8.88;;;;;;;;;;5034897;28;20704;-64
2023/10/18 04:43:51;;;;;;;13.00;9.90;;;;;;;;;;5034831;28;20237;-64
2023/10/18 04:46:25;;;;;;;10.38;9.25;;;;;;;;;;5034406;28;20209;-65
2023/10/18 04:51:45;;;;;;;11.52;10.30;;;;;;;;;;5028410;28;20273;-66
2023/10/18 04:54:18;;;;;;;11.50;9.30;;;;;;;;;;5017928;28;20209;-66
2023/10/18 04:56:45;;;;;;;14.88;9.00;;;;;;;;;;5035253;28;20196;-64
2023/10/18 04:59:29;;;;;;;10.00;8.98;;;;;;;;;;5019218;28;20202;-65
2023/10/18 05:01:56;;;;;;;12.45;8.98;;;;;;;;;;5028509;28;20227;-65
2023/10/18 05:04:29;;;;;;;12.95;8.50;;;;;;;;;;5017212;28;20203;-65
2023/10/18 05:06:59;;;;;;;11.88;9.93;;;;;;;;;;5034951;28;20623;-64
2023/10/18 05:09:34;;;;;;;10.95;9.93;;;;;;;;;;5033933;28;20210;-65
2023/10/18 05:12:07;;;;;;;13.02;10.38;;;;;;;;;;5017347;28;20215;-65
2023/10/18 05:14:43;;;;;;;14.23;9.75;;;;;;;;;;5034627;28;20235;-65
2023/10/18 05:17:13;;;;;;;12.68;9.57;;;;;;;;;;5035223;28;20189;-65
2023/10/18 05:19:42;;;;;;;14.10;10.57;;;;;;;;;;5034742;28;20193;-65
2023/10/18 05:22:17;;;;;;;16.63;11.15;;;;;;;;;;5034143;28;20201;-65
2023/10/18 05:24:55;;;;;;;14.10;11.80;;;;;;;;;;5033422;28;20217;-64
2023/10/18 05:27:27;;;;;;;13.70;11.07;;;;;;;;;;5034718;28;20201;-64
2023/10/18 05:29:57;;;;;;;18.50;13.13;;;;;;;;;;5034066;28;20194;-64
2023/10/18 05:35:26;;;;;;;16.58;13.63;;;;;;;;;;5015603;28;20197;-65
2023/10/18 05:37:59;;;;;;;19.77;13.20;;;;;;;;;;5015909;28;20193;-65
2023/10/18 05:40:46;;;;;;;17.67;12.55;;;;;;;;;;5017223;28;20208;-64
2023/10/18 05:43:22;;;;;;;16.55;12.70;;;;;;;;;;5029871;28;20240;-66
2023/10/18 05:45:55;;;;;;;20.92;12.85;;;;;;;;;;5014344;28;20211;-66
2023/10/18 05:48:24;;;;;;;16.27;12.68;;;;;;;;;;5034790;28;20205;-64
2023/10/18 05:51:02;;;;;;;15.23;11.60;;;;;;;;;;5034669;28;20203;-65
2023/10/18 05:53:31;;;;;;;15.75;11.63;;;;;;;;;;5035560;28;20264;-65
2023/10/18 05:55:59;;;;;;;13.90;10.88;;;;;;;;;;5012500;28;20197;-66
2023/10/18 05:58:28;;;;;;;17.25;11.88;;;;;;;;;;5017170;28;20205;-65
2023/10/18 06:00:57;;;;;;;15.43;11.98;;;;;;;;;;5016267;28;20209;-65
2023/10/18 06:03:26;;;;;;;13.63;10.93;;;;;;;;;;5033381;28;20209;-65
2023/10/18 06:05:55;;;;;;;16.02;11.80;;;;;;;;;;5033303;28;20278;-65
2023/10/18 06:08:24;;;;;;;14.65;11.32;;;;;;;;;;5014354;28;20193;-65
2023/10/18 06:11:00;;;;;;;14.07;12.40;;;;;;;;;;5034371;28;20204;-65
2023/10/18 06:13:28;;;;;;;15.00;12.20;;;;;;;;;;5033125;28;20193;-65
2023/10/18 06:15:58;;;;;;;15.18;11.75;;;;;;;;;;5032374;28;20239;-66
2023/10/18 06:18:37;;;;;;;16.58;11.82;;;;;;;;;;5016868;28;20280;-65
2023/10/18 06:21:11;;;;;;;15.73;12.00;;;;;;;;;;5016672;28;20199;-65
2023/10/18 06:23:39;;;;;;;15.95;11.77;;;;;;;;;;5016495;28;20188;-65
2023/10/18 06:28:56;;;;;;;16.70;13.40;;;;;;;;;;5015848;28;20200;-65
2023/10/18 06:31:24;;;;;;;21.88;12.40;;;;;;;;;;5030940;28;20568;-65
2023/10/18 06:33:56;;;;;;;13.80;11.25;;;;;;;;;;5029666;28;20201;-65
2023/10/18 06:36:25;;;;;;;14.65;12.32;;;;;;;;;;5031356;28;20193;-65
2023/10/18 06:38:53;;;;;;;18.40;12.43;;;;;;;;;;5027624;28;20211;-65
2023/10/18 06:41:23;;;;;;;15.43;13.30;;;;;;;;;;5012273;28;20289;-65
2023/10/18 06:43:53;;;;;;;15.55;12.48;;;;;;;;;;5028720;28;20283;-65
2023/10/18 06:46:27;;;;;;;16.80;12.02;;;;;;;;;;5032708;28;20728;-65
2023/10/18 06:48:55;;;;;;;18.40;12.60;;;;;;;;;;5013608;28;20197;-65
2023/10/18 06:51:33;;;;;;;15.48;12.32;;;;;;;;;;5032745;28;20193;-65
2023/10/18 06:54:03;;;;;;;14.32;11.32;;;;;;;;;;5014654;28;20687;-66
2023/10/18 06:56:39;;;;;;;13.68;11.15;;;;;;;;;;5012669;28;20194;-65
2023/10/18 06:59:07;;;;;;;15.77;12.63;;;;;;;;;;5029016;28;20205;-64
2023/10/18 07:01:41;;;;;;;18.90;12.38;;;;;;;;;;5030594;28;20263;-65
2023/10/18 07:04:17;;;;;;;15.93;12.40;;;;;;;;;;4999962;28;20194;-65
2023/10/18 07:06:46;;;;;;;14.52;12.82;;;;;;;;;;5031820;28;20208;-65
2023/10/18 07:09:25;;;;;;;19.73;14.55;;;;;;;;;;5030917;28;20217;-65
2023/10/18 07:12:03;;;;;;;15.45;11.90;;;;;;;;;;5016846;28;20196;-66
2023/10/18 07:14:32;;;;;;;18.13;13.30;;;;;;;;;;5018562;28;20224;-64
2023/10/18 07:17:03;;;;;;;23.48;14.82;;;;;;;;;;5036660;28;20272;-62
2023/10/18 07:19:33;;;;;;;19.33;14.10;;;;;;;;;;5037089;28;20186;-62
2023/10/18 07:22:06;;;;;;;15.25;12.70;;;;;;;;;;5039467;28;20369;-62
2023/10/18 07:24:36;;;;;;;16.85;12.75;;;;;;;;;;5034197;28;20264;-63
2023/10/18 07:27:09;;;;;;;18.75;13.32;;;;;;;;;;5017121;28;20213;-62
2023/10/18 07:29:37;;;;;;;15.80;12.30;;;;;;;;;;5034974;28;20418;-63
2023/10/18 07:32:12;;;;;;;15.65;12.30;;;;;;;;;;5036540;28;20900;-63
2023/10/18 07:34:42;;;;;;;18.10;14.10;;;;;;;;;;5034979;28;20581;-62
2023/10/18 07:37:19;;;;;;;15.35;12.75;;;;;;;;;;5037393;28;20285;-62
2023/10/18 07:39:48;;;;;;;14.85;12.00;;;;;;;;;;5036133;28;20201;-63
2023/10/18 07:42:20;;;;;;;17.35;12.15;;;;;;;;;;5038200;28;20216;-63
2023/10/18 07:44:52;;;;;;;22.52;16.88;;;;;;;;;;5030365;28;20227;-62
2023/10/18 07:47:25;;;;;;;21.67;15.83;;;;;;;;;;5029414;28;20754;-62
2023/10/18 07:49:55;;;;;;;21.60;13.20;;;;;;;;;;5038514;28;20692;-64
2023/10/18 07:52:23;;;;;;;17.08;12.15;;;;;;;;;;5018064;28;20201;-63
2023/10/18 07:54:51;;;;;;;16.52;12.90;;;;;;;;;;5019455;28;20201;-64
2023/10/18 07:57:31;;;;;;;18.52;12.10;;;;;;;;;;5036785;28;20280;-63
2023/10/18 08:02:43;;;;;;;17.00;13.90;;;;;;;;;;5033834;28;20288;-63
2023/10/18 08:05:11;;;;;;;14.25;12.45;;;;;;;;;;5018715;28;20197;-63
2023/10/18 08:07:40;;;;;;;16.73;13.82;;;;;;;;;;5036754;28;20591;-63
2023/10/18 08:10:15;;;;;;;18.77;15.23;;;;;;;;;;5029972;28;20197;-64
2023/10/18 08:13:01;;;;;;;11.60;10.07;;;;;;;;;;5036453;28;20254;-64
2023/10/18 08:15:34;;;;;;;16.55;13.15;;;;;;;;;;5034619;28;20248;-63
2023/10/18 08:18:14;;;;;;;23.02;15.10;;;;;;;;;;5033379;28;20220;-63
2023/10/18 08:20:56;;;;;;;20.33;14.65;;;;;;;;;;5030581;28;20205;-64
2023/10/18 08:23:37;;;;;;;17.70;14.10;;;;;;;;;;5029279;28;20197;-64
2023/10/18 08:26:05;;;;;;;14.27;12.45;;;;;;;;;;5013650;28;20209;-63
2023/10/18 08:28:45;;;;;;;16.77;12.75;;;;;;;;;;5031172;28;20204;-63
2023/10/18 08:31:26;;;;;;;19.45;14.95;;;;;;;;;;5035466;28;20314;-64
2023/10/18 08:33:56;;;;;;;17.85;12.82;;;;;;;;;;5031924;28;20676;-63
2023/10/18 08:36:30;;;;;;;18.42;14.48;;;;;;;;;;5036528;28;20686;-63
2023/10/18 08:38:58;;;;;;;16.10;12.40;;;;;;;;;;5035020;28;20216;-63
2023/10/18 08:41:32;;;;;;;16.67;13.88;;;;;;;;;;5035187;28;20255;-63
2023/10/18 08:44:08;;;;;;;15.43;13.45;;;;;;;;;;5031030;28;20298;-64
2023/10/18 08:46:39;;;;;;;14.75;12.55;;;;;;;;;;5034620;28;20723;-64
2023/10/18 08:49:08;;;;;;;19.45;12.80;;;;;;;;;;5035242;28;20208;-63
2023/10/18 08:51:39;;;;;;;24.15;12.30;;;;;;;;;;5036210;28;20736;-65
2023/10/18 08:54:17;;;;;;;19.38;13.52;;;;;;;;;;5019191;28;20185;-64
2023/10/18 08:56:47;;;;;;;20.80;14.02;;;;;;;;;;5036807;28;20207;-63
2023/10/18 08:59:19;;;;;;;21.33;14.23;;;;;;;;;;5034139;28;20574;-63
2023/10/18 09:04:31;;;;;;;18.60;13.27;;;;;;;;;;5030728;28;20636;-64
2023/10/18 09:07:01;;;;;;;13.88;12.50;;;;;;;;;;5032046;28;20221;-63
2023/10/18 09:09:34;;;;;;;22.13;14.10;;;;;;;;;;5034902;28;20216;-63
2023/10/18 09:12:14;;;;;;;15.55;13.70;;;;;;;;;;5035105;28;20679;-63
2023/10/18 09:14:50;;;;;;;18.55;14.20;;;;;;;;;;5027427;28;20193;-63
2023/10/18 09:17:22;;;;;;;21.15;13.02;;;;;;;;;;5032353;28;20201;-64
2023/10/18 09:19:53;;;;;;;16.65;13.25;;;;;;;;;;5017964;28;20208;-62
2023/10/18 09:22:21;;;;;;;15.20;13.30;;;;;;;;;;5034926;28;20272;-63
2023/10/18 09:24:50;;;;;;;15.18;12.95;;;;;;;;;;5038084;28;20283;-62
2023/10/18 09:27:22;;;;;;;23.98;14.63;;;;;;;;;;5038114;28;20221;-63
2023/10/18 09:29:53;;;;;;;16.75;14.98;;;;;;;;;;5035775;28;20189;-63
2023/10/18 09:32:33;;;;;;;14.45;12.77;;;;;;;;;;5031481;28;20276;-63
2023/10/18 09:35:07;;;;;;;17.83;12.65;;;;;;;;;;5030418;28;20530;-63
2023/10/18 09:37:36;;;;;;;15.85;14.25;;;;;;;;;;5029588;28;20830;-63
2023/10/18 09:40:05;;;;;;;15.45;13.85;;;;;;;;;;5034897;28;20280;-62
2023/10/18 09:42:33;;;;;;;15.57;12.75;;;;;;;;;;5037318;28;20289;-63
2023/10/18 09:45:03;;;;;;;17.73;14.40;;;;;;;;;;5033383;28;20797;-63
2023/10/18 09:47:32;;;;;;;14.40;13.10;;;;;;;;;;5018632;28;20225;-63
2023/10/18 09:50:08;;;;;;;15.20;13.57;;;;;;;;;;5034142;28;20197;-63
2023/10/18 09:52:48;;;;;;;14.93;13.43;;;;;;;;;;5035859;28;20252;-66
2023/10/18 09:55:20;;;;;;;14.05;12.70;;;;;;;;;;5028486;28;20197;-65
2023/10/18 09:57:59;;;;;;;17.63;14.38;;;;;;;;;;5028776;28;20209;-63
2023/10/18 10:00:29;;;;;;;14.18;12.75;;;;;;;;;;5031256;28;20280;-64
2023/10/18 10:02:58;;;;;;;18.23;14.18;;;;;;;;;;5033421;28;20288;-63
2023/10/18 10:05:26;;;;;;;17.00;12.68;;;;;;;;;;5030071;28;20296;-62
2023/10/18 10:07:55;;;;;;;16.00;14.15;;;;;;;;;;5018636;28;20227;-64
2023/10/18 10:10:34;;;;;;;16.40;13.40;;;;;;;;;;5037476;28;20211;-63
2023/10/18 10:13:13;;;;;;;15.77;13.93;;;;;;;;;;5035709;28;20272;-63
2023/10/18 10:15:45;;;;;;;13.45;12.15;;;;;;;;;;5034015;28;21117;-65
2023/10/18 10:18:14;;;;;;;14.32;12.93;;;;;;;;;;5034434;28;20727;-62
2023/10/18 10:20:44;;;;;;;14.45;12.93;;;;;;;;;;5034814;28;20193;-64
2023/10/18 10:23:15;;;;;;;14.32;12.80;;;;;;;;;;5036049;28;20284;-63
2023/10/18 10:26:00;;;;;;;16.55;14.63;;;;;;;;;;5036269;28;20276;-63
2023/10/18 10:29:33;;;;;;;17.83;14.63;;;;;;;;;;5017248;28;20612;-63
2023/10/18 10:31:55;;;;;;;15.05;13.20;;;;;;;;;;5024750;28;20710;-64
2023/10/18 10:34:27;;;;;;;14.93;13.32;;;;;;;;;;5034956;28;20284;-65
2023/10/18 10:37:05;;;;;;;15.15;13.55;;;;;;;;;;5035547;28;20261;-65
2023/10/18 10:39:35;;;;;;;16.60;14.18;;;;;;;;;;5018707;28;20215;-63
2023/10/18 10:42:11;;;;;;;16.42;13.40;;;;;;;;;;5017741;28;20280;-63
2023/10/18 10:44:57;;;;;;;20.02;13.45;;;;;;;;;;5009203;28;20300;-63
2023/10/18 10:47:33;;;;;;;16.40;12.50;;;;;;;;;;5011539;28;20583;-63
2023/10/18 10:50:07;;;;;;;14.33;12.80;;;;;;;;;;4997168;28;20609;-64
2023/10/18 10:52:40;;;;;;;18.17;13.70;;;;;;;;;;5015439;28;20720;-63
2023/10/18 10:55:20;;;;;;;16.53;14.93;;;;;;;;;;5012237;28;20659;-66
2023/10/18 10:57:49;;;;;;;19.57;13.60;;;;;;;;;;5014392;28;20658;-66
2023/10/18 11:00:36;;;;;;;14.93;12.70;;;;;;;;;;5014946;28;20629;-64
2023/10/18 11:03:21;;;;;;;14.87;13.33;;;;;;;;;;5011006;28;21720;-63
2023/10/18 11:05:54;;;;;;;16.53;12.63;;;;;;;;;;5012450;28;20707;-64
2023/10/18 11:08:25;;;;;;;16.40;14.70;;;;;;;;;;5012229;28;20690;-64
2023/10/18 11:10:53;;;;;;;21.73;13.97;;;;;;;;;;5012147;28;21061;-65
2023/10/18 11:13:25;;;;;;;14.37;12.57;;;;;;;;;;5012536;28;20649;-67
2023/10/18 11:15:53;;;;;;;14.00;12.50;;;;;;;;;;5008892;28;20684;-64
2023/10/18 11:18:22;;;;;;;14.27;12.80;;;;;;;;;;5012969;28;20621;-65
2023/10/18 11:21:05;;;;;;;13.80;12.40;;;;;;;;;;5012690;28;20644;-63
2023/10/18 11:23:34;;;;;;;14.37;12.87;;;;;;;;;;5009818;28;20625;-63
2023/10/18 11:26:09;;;;;;;16.13;13.70;;;;;;;;;;5013808;28;20655;-63
2023/10/18 11:28:38;;;;;;;14.07;12.70;;;;;;;;;;5014554;28;20648;-66
2023/10/18 11:31:07;;;;;;;14.50;13.10;;;;;;;;;;5013829;28;20974;-66
2023/10/18 11:33:46;;;;;;;18.13;15.37;;;;;;;;;;5008950;28;20740;-65
2023/10/18 11:36:19;;;;;;;17.20;12.60;;;;;;;;;;5011850;28;21161;-64
2023/10/18 11:41:35;;;;;;;16.63;13.23;;;;;;;;;;5006965;28;21039;-63
2023/10/18 11:44:06;;;;;;;15.60;13.37;;;;;;;;;;5029720;28;20678;-64
2023/10/18 11:46:50;;;;;;;14.40;13.03;;;;;;;;;;5029555;28;20645;-63
2023/10/18 11:49:20;;;;;;;17.33;14.07;;;;;;;;;;5029681;28;21071;-67
2023/10/18 11:51:50;;;;;;;14.97;13.50;;;;;;;;;;5029734;28;20672;-68
2023/10/18 11:54:29;;;;;;;15.13;12.80;;;;;;;;;;5028195;28;20591;-67
2023/10/18 11:56:57;;;;;;;17.13;14.00;;;;;;;;;;5026060;28;20669;-67
2023/10/18 11:59:26;;;;;;;14.23;12.17;;;;;;;;;;5030602;28;20678;-66
2023/10/18 12:01:55;;;;;;;14.20;12.80;;;;;;;;;;5031484;28;20689;-68
2023/10/18 12:04:28;;;;;;;14.30;12.43;;;;;;;;;;5032944;28;20602;-68
2023/10/18 12:06:58;;;;;;;14.90;13.50;;;;;;;;;;5032273;28;20625;-67
2023/10/18 12:09:26;;;;;;;14.90;13.30;;;;;;;;;;5014269;28;20626;-68
2023/10/18 12:11:55;;;;;;;31.17;28.00;;;;;;;;;;5029652;28;20705;-68
2023/10/18 12:14:24;;;;;;;14.50;12.63;;;;;;;;;;5032551;28;20634;-66
2023/10/18 12:16:54;;;;;;;14.23;12.83;;;;;;;;;;5028820;28;20636;-68
2023/10/18 12:19:22;;;;;;;14.57;13.23;;;;;;;;;;5031608;28;21185;-66
2023/10/18 12:21:54;;;;;;;13.30;12.00;;;;;;;;;;5032686;28;20628;-68
2023/10/18 12:24:24;;;;;;;18.10;13.83;;;;;;;;;;5033102;28;20653;-66
2023/10/18 12:26:54;;;;;;;13.20;11.50;;;;;;;;;;5032811;28;20607;-66
2023/10/18 12:29:27;;;;;;;11.57;10.33;;;;;;;;;;5011919;28;20651;-66
2023/10/18 12:32:07;;;;;;;15.20;13.70;;;;;;;;;;5032160;28;20980;-66
2023/10/18 12:34:36;;;;;;;13.63;12.33;;;;;;;;;;5032711;28;20626;-66
2023/10/18 12:37:07;;;;;;;16.00;12.97;;;;;;;;;;5036068;28;20662;-66
2023/10/18 12:39:37;;;;;;;12.50;11.40;;;;;;;;;;5045232;28;20698;-66
2023/10/18 12:42:05;;;;;;;15.43;11.00;;;;;;;;;;5036899;28;20635;-66
2023/10/18 12:44:39;;;;;;;13.97;11.50;;;;;;;;;;5025183;28;20667;-66
2023/10/18 12:47:10;;;;;;;11.90;10.70;;;;;;;;;;5033154;28;20653;-66
2023/10/18 12:49:44;;;;;;;13.00;11.60;;;;;;;;;;5037695;28;20660;-66
2023/10/18 12:55:04;;;;;;;12.90;11.70;;;;;;;;;;5009242;28;20621;-65
2023/10/18 12:57:32;;;;;;;14.47;11.67;;;;;;;;;;5035517;28;20737;-66
2023/10/18 13:00:13;;;;;;;12.50;11.20;;;;;;;;;;5034198;28;20789;-66
2023/10/18 13:02:50;;;;;;;12.50;11.20;;;;;;;;;;5036226;28;21010;-65
2023/10/18 13:05:19;;;;;;;12.07;10.87;;;;;;;;;;5035857;28;20957;-65
2023/10/18 13:07:52;;;;;;;12.60;11.17;;;;;;;;;;5035947;28;21117;-66
2023/10/18 13:10:29;;;;;;;13.20;11.40;;;;;;;;;;5018032;28;20660;-65
2023/10/18 13:13:04;;;;;;;13.90;12.53;;;;;;;;;;5034420;28;20689;-66
2023/10/18 13:15:33;;;;;;;12.47;11.37;;;;;;;;;;5036941;28;20645;-66
2023/10/18 13:18:01;;;;;;;13.87;9.70;;;;;;;;;;5034381;28;21044;-65
2023/10/18 13:20:34;;;;;;;11.43;10.23;;;;;;;;;;5035252;28;20612;-66
2023/10/18 13:23:06;;;;;;;10.97;9.63;;;;;;;;;;5034981;28;20623;-66
2023/10/18 13:25:38;;;;;;;11.00;9.90;;;;;;;;;;5036757;28;20654;-66
2023/10/18 13:28:06;;;;;;;10.57;9.63;;;;;;;;;;5035834;28;20703;-65
2023/10/18 13:30:39;;;;;;;11.63;10.43;;;;;;;;;;5035540;28;20623;-66
2023/10/18 13:33:12;;;;;;;10.80;9.70;;;;;;;;;;5035363;28;20691;-66
2023/10/18 13:35:40;;;;;;;20.53;9.70;;;;;;;;;;5036274;28;20716;-66
2023/10/18 13:38:09;;;;;;;10.80;9.70;;;;;;;;;;5037654;28;20731;-66
2023/10/18 13:40:38;;;;;;;17.23;11.23;;;;;;;;;;5037909;28;20723;-66
2023/10/18 13:43:07;;;;;;;10.67;9.57;;;;;;;;;;5035547;28;20759;-65
2023/10/18 13:45:35;;;;;;;9.77;8.83;;;;;;;;;;5033117;28;20624;-66
2023/10/18 13:48:03;;;;;;;10.40;9.40;;;;;;;;;;5037233;28;20687;-66
2023/10/18 13:50:37;;;;;;;11.47;10.40;;;;;;;;;;5035899;28;21099;-66
2023/10/18 13:53:06;;;;;;;11.73;10.20;;;;;;;;;;5033484;28;21183;-66
2023/10/18 13:55:34;;;;;;;10.97;10.07;;;;;;;;;;5016645;28;20621;-65
2023/10/18 13:58:06;;;;;;;11.37;10.23;;;;;;;;;;5034223;28;20694;-65
2023/10/18 14:00:40;;;;;;;12.90;10.17;;;;;;;;;;5032440;28;20695;-66
2023/10/18 14:03:08;;;;;;;11.60;10.50;;;;;;;;;;5027446;28;20605;-66
2023/10/18 14:05:40;;;;;;;12.40;11.10;;;;;;;;;;5027104;28;20595;-66
2023/10/18 14:08:11;;;;;;;13.13;10.87;;;;;;;;;;5031761;28;20728;-66
2023/10/18 14:10:41;;;;;;;12.90;10.03;;;;;;;;;;5034358;28;20628;-66
2023/10/18 14:13:10;;;;;;;11.43;9.90;;;;;;;;;;5011708;28;20658;-65
2023/10/18 14:15:39;;;;;;;14.00;12.33;;;;;;;;;;5017912;28;20697;-66
2023/10/18 14:18:07;;;;;;;14.30;12.80;;;;;;;;;;5036674;28;21034;-66
2023/10/18 14:20:38;;;;;;;10.70;9.70;;;;;;;;;;5018783;28;20715;-66
2023/10/18 14:23:09;;;;;;;17.23;15.40;;;;;;;;;;5023403;28;20621;-66
2023/10/18 14:25:38;;;;;;;9.70;8.77;;;;;;;;;;5033234;28;20681;-66
2023/10/18 14:28:08;;;;;;;12.30;10.33;;;;;;;;;;5011752;28;20689;-66
2023/10/18 14:30:37;;;;;;;11.20;9.93;;;;;;;;;;5009095;28;20608;-66
2023/10/18 14:33:07;;;;;;;8.70;7.80;;;;;;;;;;5035051;28;20726;-66
2023/10/18 14:35:35;;;;;;;9.80;8.80;;;;;;;;;;5035896;28;20711;-66
2023/10/18 14:38:06;;;;;;;8.67;7.90;;;;;;;;;;5032729;28;20644;-66
2023/10/18 14:40:35;;;;;;;10.33;9.33;;;;;;;;;;5036564;28;20723;-66
2023/10/18 14:43:04;;;;;;;8.43;7.63;;;;;;;;;;5035457;28;20729;-65
2023/10/18 14:45:35;;;;;;;8.80;7.47;;;;;;;;;;5027000;28;20644;-65
2023/10/18 14:48:05;;;;;;;13.27;11.93;;;;;;;;;;5034562;28;21044;-65
2023/10/18 14:50:35;;;;;;;15.10;7.67;;;;;;;;;;5030671;28;20678;-64
2023/10/18 14:53:03;;;;;;;8.93;8.13;;;;;;;;;;5027552;28;20587;-65
2023/10/18 14:55:34;;;;;;;9.07;7.40;;;;;;;;;;5028353;28;20599;-65
2023/10/18 14:58:02;;;;;;;8.17;7.47;;;;;;;;;;5009786;28;20819;-65
2023/10/18 15:00:30;;;;;;;14.43;8.10;;;;;;;;;;5013096;28;20591;-65
2023/10/18 15:02:59;;;;;;;8.30;7.50;;;;;;;;;;5025809;28;20603;-64
2023/10/18 15:05:28;;;;;;;10.83;8.50;;;;;;;;;;5032145;28;20630;-65
2023/10/18 15:07:58;;;;;;;9.40;7.73;;;;;;;;;;5031564;28;21162;-65
2023/10/18 15:10:27;;;;;;;7.73;7.07;;;;;;;;;;5016999;28;20636;-65
2023/10/18 15:12:55;;;;;;;9.57;8.60;;;;;;;;;;5029042;28;20641;-64